createdAt,value
2022-12-25T00:01:59.896Z,11.40
2022-12-25T00:04:47.109Z,11.50
2022-12-25T00:07:34.474Z,11.50
2022-12-25T00:10:22.217Z,11.50
2022-12-25T00:13:09.707Z,11.60
2022-12-25T00:15:57.448Z,11.50
2022-12-25T00:18:45.075Z,11.50
2022-12-25T00:21:34.809Z,11.40
2022-12-25T00:24:21.766Z,11.40
2022-12-25T00:27:08.927Z,11.50
2022-12-25T00:29:57.133Z,11.50
2022-12-25T00:32:44.363Z,11.50
2022-12-25T00:35:31.863Z,11.50
2022-12-25T00:38:19.076Z,11.40
2022-12-25T00:41:08.695Z,11.30
2022-12-25T00:43:55.993Z,11.40
2022-12-25T00:46:43.327Z,11.50
2022-12-25T00:49:30.436Z,11.60
2022-12-25T00:52:17.753Z,11.50
2022-12-25T00:55:05.457Z,11.50
2022-12-25T00:57:52.866Z,11.50
2022-12-25T01:00:40.505Z,11.50
2022-12-25T01:03:27.997Z,11.50
2022-12-25T01:06:15.313Z,11.50
2022-12-25T01:09:20.844Z,11.50
2022-12-25T01:12:08.569Z,11.40
2022-12-25T01:14:56.264Z,11.30
2022-12-25T01:17:44.518Z,11.30
2022-12-25T01:20:32.018Z,11.30
2022-12-25T01:23:19.130Z,11.30
2022-12-25T01:26:09.125Z,11.30
2022-12-25T01:28:56.586Z,11.20
2022-12-25T01:31:44.517Z,11.30
2022-12-25T01:34:31.991Z,11.30
2022-12-25T01:37:19.473Z,11.30
2022-12-25T01:40:10.710Z,11.30
2022-12-25T01:42:57.981Z,11.30
2022-12-25T01:45:47.557Z,11.30
2022-12-25T01:48:38.309Z,11.10
2022-12-25T01:51:37.945Z,11.00
2022-12-25T01:54:31.366Z,10.90
2022-12-25T01:57:21.618Z,10.90
2022-12-25T02:00:10.084Z,10.90
2022-12-25T02:02:58.229Z,11.00
2022-12-25T02:05:47.645Z,10.90
2022-12-25T02:08:35.085Z,10.90
2022-12-25T02:11:40.500Z,11.00
2022-12-25T02:14:31.730Z,10.90
2022-12-25T02:17:45.648Z,11.00
2022-12-25T02:20:54.376Z,10.80
2022-12-25T02:23:57.029Z,10.90
2022-12-25T02:27:04.200Z,10.90
2022-12-25T02:30:06.614Z,10.90
2022-12-25T02:33:01.790Z,10.90
2022-12-25T02:35:52.401Z,10.90
2022-12-25T02:38:46.801Z,10.90
2022-12-25T02:41:37.154Z,10.80
2022-12-25T02:44:44.231Z,10.90
2022-12-25T02:47:51.195Z,10.90
2022-12-25T02:50:58.689Z,10.90
2022-12-25T02:54:05.360Z,10.90
2022-12-25T02:57:13.378Z,10.70
2022-12-25T03:00:20.993Z,10.70
2022-12-25T03:03:27.285Z,10.60
2022-12-25T03:06:34.522Z,10.80
2022-12-25T03:09:42.921Z,10.80
2022-12-25T03:12:39.701Z,10.70
2022-12-25T03:15:45.336Z,10.80
2022-12-25T03:18:33.698Z,10.80
2022-12-25T03:21:39.236Z,10.80
2022-12-25T03:24:45.001Z,10.90
2022-12-25T03:27:35.470Z,11.10
2022-12-25T03:30:42.982Z,11.20
2022-12-25T03:34:14.170Z,11.20
2022-12-25T03:37:15.096Z,11.40
2022-12-25T03:40:45.073Z,11.40
2022-12-25T03:43:56.167Z,11.40
2022-12-25T03:47:04.461Z,11.50
2022-12-25T03:50:16.127Z,11.50
2022-12-25T03:53:24.984Z,11.50
2022-12-25T03:56:32.571Z,11.60
2022-12-25T03:59:39.769Z,11.60
2022-12-25T04:02:45.304Z,11.70
2022-12-25T04:05:50.253Z,11.70
2022-12-25T04:08:55.956Z,11.80
2022-12-25T04:12:03.123Z,11.80
2022-12-25T04:15:07.752Z,11.80
2022-12-25T04:18:12.684Z,11.70
2022-12-25T04:21:18.014Z,11.60
2022-12-25T04:24:24.092Z,11.70
2022-12-25T04:27:29.239Z,11.70
2022-12-25T04:30:34.778Z,11.80
2022-12-25T04:33:40.370Z,11.80
2022-12-25T04:36:27.622Z,11.80
2022-12-25T04:39:14.655Z,11.80
2022-12-25T04:42:01.995Z,11.90
2022-12-25T04:44:51.469Z,11.80
2022-12-25T04:47:38.405Z,11.90
2022-12-25T04:50:26.389Z,11.80
2022-12-25T04:53:13.658Z,11.70
2022-12-25T04:56:04.707Z,11.70
2022-12-25T04:58:52.461Z,11.70
2022-12-25T05:01:39.821Z,11.80
2022-12-25T05:04:27.380Z,11.80
2022-12-25T05:07:15.025Z,11.80
2022-12-25T05:10:02.316Z,11.90
2022-12-25T05:12:49.626Z,11.80
2022-12-25T05:15:38.299Z,11.80
2022-12-25T05:18:25.910Z,11.80
2022-12-25T05:21:13.476Z,11.70
2022-12-25T05:24:01.015Z,11.70
2022-12-25T05:26:48.266Z,11.60
2022-12-25T05:29:35.662Z,11.50
2022-12-25T05:32:23.174Z,11.60
2022-12-25T05:35:10.555Z,11.60
2022-12-25T05:37:58.132Z,11.70
2022-12-25T05:40:45.459Z,11.70
2022-12-25T05:43:34.448Z,11.70
2022-12-25T05:46:21.575Z,11.80
2022-12-25T05:49:08.925Z,11.80
2022-12-25T05:51:56.185Z,11.80
2022-12-25T05:54:44.593Z,11.80
2022-12-25T05:57:32.651Z,11.80
2022-12-25T06:00:20.705Z,11.80
2022-12-25T06:03:08.092Z,11.90
2022-12-25T06:05:55.215Z,11.90
2022-12-25T06:08:42.835Z,11.90
2022-12-25T06:11:30.389Z,11.90
2022-12-25T06:14:18.900Z,11.80
2022-12-25T06:17:06.289Z,11.70
2022-12-25T06:19:54.528Z,11.70
2022-12-25T06:22:41.743Z,11.70
2022-12-25T06:25:29.060Z,11.80
2022-12-25T06:28:16.552Z,11.80
2022-12-25T06:31:08.557Z,11.80
2022-12-25T06:33:55.981Z,11.70
2022-12-25T06:36:43.530Z,11.80
2022-12-25T06:39:30.891Z,11.70
2022-12-25T06:42:18.362Z,11.60
2022-12-25T06:45:06.500Z,11.50
2022-12-25T06:47:53.649Z,11.50
2022-12-25T06:50:45.690Z,11.60
2022-12-25T06:53:39.780Z,11.70
2022-12-25T06:56:24.954Z,11.60
2022-12-25T06:59:12.606Z,11.60
2022-12-25T07:02:00.035Z,11.50
2022-12-25T07:04:48.250Z,11.60
2022-12-25T07:07:35.579Z,11.60
2022-12-25T07:10:23.021Z,11.70
2022-12-25T07:13:10.237Z,11.80
2022-12-25T07:16:01.294Z,11.80
2022-12-25T07:18:48.673Z,11.70
2022-12-25T07:21:36.380Z,11.60
2022-12-25T07:24:24.510Z,11.60
2022-12-25T07:27:14.145Z,11.60
2022-12-25T07:30:01.489Z,11.60
2022-12-25T07:32:50.365Z,11.70
2022-12-25T07:35:38.760Z,11.70
2022-12-25T07:38:27.485Z,11.80
2022-12-25T07:41:14.972Z,11.70
2022-12-25T07:44:02.244Z,11.80
2022-12-25T07:46:49.536Z,11.80
2022-12-25T07:49:37.344Z,11.80
2022-12-25T07:52:24.634Z,11.80
2022-12-25T07:55:12.343Z,11.80
2022-12-25T07:57:59.817Z,11.90
2022-12-25T08:00:47.491Z,11.80
2022-12-25T08:03:36.991Z,11.70
2022-12-25T08:06:27.641Z,11.70
2022-12-25T08:09:15.224Z,11.60
2022-12-25T08:12:03.729Z,11.70
2022-12-25T08:14:51.037Z,11.70
2022-12-25T08:17:38.272Z,11.80
2022-12-25T08:20:25.932Z,11.90
2022-12-25T08:23:13.415Z,11.90
2022-12-25T08:26:05.471Z,12.00
2022-12-25T08:28:52.233Z,12.00
2022-12-25T08:31:46.086Z,11.90
2022-12-25T08:34:30.408Z,12.00
2022-12-25T08:37:20.439Z,12.00
2022-12-25T08:40:10.804Z,12.00
2022-12-25T08:42:58.425Z,12.00
2022-12-25T08:45:47.915Z,12.00
2022-12-25T08:48:35.927Z,12.10
2022-12-25T08:51:24.356Z,12.10
2022-12-25T08:54:12.722Z,12.20
2022-12-25T08:57:02.867Z,12.20
2022-12-25T08:59:49.487Z,12.20
2022-12-25T09:02:36.889Z,12.30
2022-12-25T09:05:24.455Z,12.30
2022-12-25T09:08:11.683Z,12.40
2022-12-25T09:11:08.371Z,12.30
2022-12-25T09:13:55.574Z,12.40
2022-12-25T09:16:43.325Z,12.20
2022-12-25T09:19:31.462Z,12.10
2022-12-25T09:22:19.264Z,12.10
2022-12-25T09:25:06.981Z,12.10
2022-12-25T09:27:55.956Z,12.10
2022-12-25T09:30:42.941Z,12.20
2022-12-25T09:33:30.171Z,12.20
2022-12-25T09:36:17.774Z,12.30
2022-12-25T09:39:05.132Z,12.30
2022-12-25T09:42:04.359Z,12.20
2022-12-25T09:44:57.594Z,12.10
2022-12-25T09:47:48.117Z,12.10
2022-12-25T09:50:53.660Z,12.10
2022-12-25T09:53:53.561Z,12.10
2022-12-25T09:56:41.122Z,12.10
2022-12-25T09:59:28.410Z,12.30
2022-12-25T10:02:49.179Z,12.40
2022-12-25T10:05:59.404Z,12.50
2022-12-25T10:09:13.403Z,12.60
2022-12-25T10:12:27.368Z,12.50
2022-12-25T10:15:33.013Z,12.60
2022-12-25T10:18:39.931Z,12.60
2022-12-25T10:21:28.222Z,12.90
2022-12-25T10:24:33.596Z,12.80
2022-12-25T10:27:26.908Z,12.90
2022-12-25T10:30:19.755Z,12.90
2022-12-25T10:33:09.849Z,12.90
2022-12-25T10:35:55.808Z,12.90
2022-12-25T10:38:43.334Z,13.10
2022-12-25T10:41:53.468Z,13.30
2022-12-25T10:44:40.644Z,13.40
2022-12-25T10:47:31.242Z,13.50
2022-12-25T10:50:26.271Z,13.50
2022-12-25T10:53:22.801Z,13.40
2022-12-25T10:56:16.247Z,13.50
2022-12-25T10:59:08.383Z,13.60
2022-12-25T11:01:57.672Z,13.70
2022-12-25T11:04:45.005Z,13.70
2022-12-25T11:07:36.783Z,13.80
2022-12-25T11:10:33.440Z,13.70
2022-12-25T11:13:24.791Z,13.70
2022-12-25T11:16:27.510Z,13.80
2022-12-25T11:19:30.416Z,13.90
2022-12-25T11:22:19.229Z,13.90
2022-12-25T11:25:15.625Z,13.80
2022-12-25T11:28:06.004Z,13.80
2022-12-25T11:31:08.742Z,13.80
2022-12-25T11:34:07.849Z,13.60
2022-12-25T11:36:55.595Z,13.60
2022-12-25T11:39:43.388Z,13.80
2022-12-25T11:42:40.202Z,13.70
2022-12-25T11:45:35.456Z,13.60
2022-12-25T11:48:47.391Z,13.50
2022-12-25T11:51:37.701Z,13.50
2022-12-25T11:54:27.794Z,13.40
2022-12-25T11:57:15.241Z,13.30
2022-12-25T12:00:09.741Z,13.20
2022-12-25T12:03:03.020Z,13.30
2022-12-25T12:06:02.113Z,13.40
2022-12-25T12:08:52.556Z,13.50
2022-12-25T12:11:42.752Z,13.60
2022-12-25T12:14:49.587Z,13.70
2022-12-25T12:17:36.992Z,13.80
2022-12-25T12:20:32.966Z,13.80
2022-12-25T12:23:21.432Z,13.70
2022-12-25T12:26:10.268Z,13.50
2022-12-25T12:29:00.694Z,13.50
2022-12-25T12:31:50.604Z,13.50
2022-12-25T12:34:42.248Z,13.50
2022-12-25T12:37:32.534Z,13.60
2022-12-25T12:40:28.424Z,13.50
2022-12-25T12:43:38.539Z,13.60
2022-12-25T12:46:31.349Z,13.70
2022-12-25T12:49:33.552Z,13.70
2022-12-25T12:52:32.816Z,13.70
2022-12-25T12:55:41.196Z,13.60
2022-12-25T12:58:35.144Z,13.60
2022-12-25T13:01:28.740Z,13.60
2022-12-25T13:04:37.060Z,13.50
2022-12-25T13:07:53.125Z,13.60
2022-12-25T13:10:43.169Z,13.50
2022-12-25T13:13:33.435Z,13.40
2022-12-25T13:16:35.684Z,13.40
2022-12-25T13:19:28.838Z,13.40
2022-12-25T13:22:28.280Z,13.30
2022-12-25T13:25:21.690Z,13.20
2022-12-25T13:28:11.957Z,13.20
2022-12-25T13:31:16.775Z,13.10
2022-12-25T13:34:06.700Z,13.10
2022-12-25T13:36:55.054Z,13.10
2022-12-25T13:39:51.718Z,13.20
2022-12-25T13:42:39.941Z,13.20
2022-12-25T13:45:30.112Z,13.20
2022-12-25T13:48:20.159Z,13.20
2022-12-25T13:51:09.120Z,13.30
2022-12-25T13:54:07.532Z,13.40
2022-12-25T13:56:56.225Z,13.40
2022-12-25T13:59:45.539Z,13.40
2022-12-25T14:02:38.292Z,13.30
2022-12-25T14:05:32.332Z,13.30
2022-12-25T14:08:22.111Z,13.20
2022-12-25T14:11:10.266Z,13.20
2022-12-25T14:14:06.594Z,13.20
2022-12-25T14:16:56.694Z,13.20
2022-12-25T14:19:43.604Z,13.20
2022-12-25T14:22:32.551Z,13.20
2022-12-25T14:25:21.060Z,13.20
2022-12-25T14:28:11.460Z,13.10
2022-12-25T14:31:00.421Z,13.10
2022-12-25T14:33:49.250Z,13.20
2022-12-25T14:36:36.872Z,13.20
2022-12-25T14:39:34.401Z,13.00
2022-12-25T14:42:25.252Z,12.80
2022-12-25T14:45:32.887Z,12.80
2022-12-25T14:48:26.118Z,12.90
2022-12-25T14:51:20.419Z,12.90
2022-12-25T14:54:10.761Z,13.00
2022-12-25T14:56:59.008Z,13.00
2022-12-25T14:59:46.545Z,13.00
2022-12-25T15:02:37.115Z,13.00
2022-12-25T15:05:33.309Z,13.00
2022-12-25T15:08:25.488Z,13.00
2022-12-25T15:11:12.728Z,12.90
2022-12-25T15:14:00.670Z,13.00
2022-12-25T15:16:52.136Z,12.80
2022-12-25T15:19:39.707Z,12.70
2022-12-25T15:22:33.601Z,12.60
2022-12-25T15:25:16.047Z,12.60
2022-12-25T15:28:06.729Z,12.60
2022-12-25T15:30:53.097Z,12.70
2022-12-25T15:33:44.067Z,12.60
2022-12-25T15:36:29.671Z,12.70
2022-12-25T15:39:16.981Z,12.70
2022-12-25T15:42:13.198Z,12.70
2022-12-25T15:45:00.721Z,12.70
2022-12-25T15:47:48.129Z,12.70
2022-12-25T15:50:36.785Z,12.70
2022-12-25T15:53:24.443Z,12.70
2022-12-25T15:56:13.329Z,12.70
2022-12-25T15:59:01.399Z,12.70
2022-12-25T16:01:51.687Z,12.80
2022-12-25T16:04:40.648Z,12.80
2022-12-25T16:07:29.413Z,12.80
2022-12-25T16:10:20.089Z,12.80
2022-12-25T16:13:07.515Z,12.80
2022-12-25T16:15:54.979Z,12.60
2022-12-25T16:18:47.415Z,12.70
2022-12-25T16:21:34.517Z,12.70
2022-12-25T16:24:21.689Z,12.80
2022-12-25T16:27:09.116Z,12.90
2022-12-25T16:29:56.834Z,12.90
2022-12-25T16:32:44.510Z,12.90
2022-12-25T16:35:32.311Z,12.90
2022-12-25T16:38:20.121Z,12.90
2022-12-25T16:41:08.846Z,12.90
2022-12-25T16:43:55.967Z,13.00
2022-12-25T16:46:43.723Z,12.90
2022-12-25T16:49:31.028Z,12.80
2022-12-25T16:52:19.438Z,12.80
2022-12-25T16:55:07.176Z,12.70
2022-12-25T16:57:55.771Z,12.60
2022-12-25T17:00:49.040Z,12.60
2022-12-25T17:03:32.775Z,12.50
2022-12-25T17:06:23.215Z,12.50
2022-12-25T17:09:10.838Z,12.40
2022-12-25T17:11:58.361Z,12.40
2022-12-25T17:14:48.313Z,12.40
2022-12-25T17:17:35.832Z,12.50
2022-12-25T17:20:23.286Z,12.40
2022-12-25T17:23:10.818Z,12.40
2022-12-25T17:26:02.804Z,12.40
2022-12-25T17:28:49.965Z,12.50
2022-12-25T17:31:38.002Z,12.50
2022-12-25T17:34:25.165Z,12.60
2022-12-25T17:37:12.703Z,12.50
2022-12-25T17:39:59.806Z,12.50
2022-12-25T17:42:47.050Z,12.60
2022-12-25T17:45:39.074Z,12.50
2022-12-25T17:48:26.425Z,12.40
2022-12-25T17:51:19.183Z,12.50
2022-12-25T17:54:06.555Z,12.60
2022-12-25T17:56:53.738Z,12.80
2022-12-25T17:59:40.913Z,12.80
2022-12-25T18:02:29.816Z,12.80
2022-12-25T18:05:17.532Z,12.80
2022-12-25T18:08:05.183Z,12.70
2022-12-25T18:10:52.273Z,12.70
2022-12-25T18:13:41.509Z,12.70
2022-12-25T18:16:30.339Z,12.80
2022-12-25T18:19:18.592Z,12.80
2022-12-25T18:22:05.884Z,12.70
2022-12-25T18:24:53.643Z,12.70
2022-12-25T18:27:41.081Z,12.60
2022-12-25T18:30:28.571Z,12.60
2022-12-25T18:33:15.972Z,12.80
2022-12-25T18:36:03.242Z,12.70
2022-12-25T18:38:51.967Z,12.70
2022-12-25T18:41:42.793Z,12.70
2022-12-25T18:44:31.448Z,12.80
2022-12-25T18:47:18.871Z,12.80
2022-12-25T18:50:07.171Z,12.80
2022-12-25T18:52:54.340Z,12.60
2022-12-25T18:55:41.899Z,12.60
2022-12-25T18:58:29.617Z,12.70
2022-12-25T19:01:20.319Z,12.60
2022-12-25T19:04:09.607Z,12.60
2022-12-25T19:06:56.934Z,12.40
2022-12-25T19:09:45.225Z,12.40
2022-12-25T19:12:33.159Z,12.40
2022-12-25T19:15:20.445Z,12.30
2022-12-25T19:18:07.613Z,12.30
2022-12-25T19:20:55.119Z,12.30
2022-12-25T19:23:42.433Z,12.30
2022-12-25T19:26:29.746Z,12.30
2022-12-25T19:29:18.074Z,12.20
2022-12-25T19:32:06.119Z,12.30
2022-12-25T19:34:53.207Z,12.20
2022-12-25T19:37:40.657Z,12.20
2022-12-25T19:40:27.926Z,12.30
2022-12-25T19:43:15.647Z,12.30
2022-12-25T19:46:03.664Z,12.30
2022-12-25T19:48:51.077Z,12.20
2022-12-25T19:51:40.540Z,12.20
2022-12-25T19:54:29.501Z,12.20
2022-12-25T19:57:16.984Z,12.20
2022-12-25T20:00:05.176Z,12.10
2022-12-25T20:02:52.832Z,12.20
2022-12-25T20:05:40.278Z,12.20
2022-12-25T20:08:27.460Z,12.20
2022-12-25T20:11:14.752Z,12.10
2022-12-25T20:14:02.585Z,12.10
2022-12-25T20:16:50.108Z,12.20
2022-12-25T20:19:37.383Z,12.20
2022-12-25T20:22:24.604Z,12.20
2022-12-25T20:25:13.893Z,12.30
2022-12-25T20:28:01.366Z,12.40
2022-12-25T20:30:48.754Z,12.20
2022-12-25T20:33:37.490Z,12.20
2022-12-25T20:36:24.814Z,12.10
2022-12-25T20:39:13.581Z,12.20
2022-12-25T20:42:00.742Z,12.20
2022-12-25T20:44:47.760Z,12.00
2022-12-25T20:47:36.213Z,12.10
2022-12-25T20:50:23.697Z,12.00
2022-12-25T20:53:10.826Z,12.10
2022-12-25T20:55:58.262Z,12.10
2022-12-25T20:58:45.705Z,12.10
2022-12-25T21:01:34.258Z,12.20
2022-12-25T21:04:21.478Z,12.20
2022-12-25T21:07:08.644Z,12.10
2022-12-25T21:09:55.950Z,11.90
2022-12-25T21:12:43.302Z,11.90
2022-12-25T21:15:30.818Z,11.90
2022-12-25T21:18:20.237Z,11.90
2022-12-25T21:21:08.340Z,11.80
2022-12-25T21:23:57.347Z,11.80
2022-12-25T21:26:48.191Z,11.70
2022-12-25T21:29:33.841Z,11.70
2022-12-25T21:32:39.307Z,11.80
2022-12-25T21:35:26.482Z,11.80
2022-12-25T21:38:13.908Z,11.90
2022-12-25T21:41:10.008Z,11.90
2022-12-25T21:43:57.732Z,11.90
2022-12-25T21:46:45.250Z,12.00
2022-12-25T21:49:50.555Z,12.00
2022-12-25T21:52:37.951Z,11.90
2022-12-25T21:55:25.475Z,11.90
2022-12-25T21:58:12.686Z,12.00
2022-12-25T22:01:05.288Z,12.10
2022-12-25T22:03:55.471Z,12.20
2022-12-25T22:07:03.188Z,12.10
2022-12-25T22:09:54.015Z,12.10
2022-12-25T22:12:58.920Z,12.00
2022-12-25T22:16:04.813Z,12.10
2022-12-25T22:19:09.707Z,12.00
2022-12-25T22:21:58.409Z,11.90
2022-12-25T22:24:45.919Z,12.00
2022-12-25T22:27:38.961Z,12.00
2022-12-25T22:30:29.236Z,11.90
2022-12-25T22:33:16.804Z,11.90
2022-12-25T22:36:06.504Z,12.00
2022-12-25T22:38:56.133Z,12.10
2022-12-25T22:41:43.531Z,12.20
2022-12-25T22:44:32.627Z,12.20
2022-12-25T22:47:20.143Z,12.20
2022-12-25T22:50:07.895Z,12.20
2022-12-25T22:52:55.407Z,12.20
2022-12-25T22:55:48.024Z,12.20
2022-12-25T22:58:35.535Z,12.20
2022-12-25T23:01:25.525Z,12.30
2022-12-25T23:04:13.459Z,12.40
2022-12-25T23:07:00.866Z,12.40
2022-12-25T23:09:48.414Z,12.40
2022-12-25T23:12:53.498Z,12.40
2022-12-25T23:15:41.015Z,12.40
2022-12-25T23:18:46.694Z,12.50
2022-12-25T23:21:52.452Z,12.40
2022-12-25T23:24:58.098Z,12.40
2022-12-25T23:27:46.550Z,12.30
2022-12-25T23:30:33.819Z,12.30
2022-12-25T23:33:22.401Z,12.20
2022-12-25T23:36:11.362Z,12.10
2022-12-25T23:39:04.741Z,12.20
2022-12-25T23:41:47.824Z,12.10
2022-12-25T23:44:35.147Z,12.10
2022-12-25T23:47:24.182Z,12.10
2022-12-25T23:50:11.746Z,12.10
2022-12-25T23:52:59.152Z,12.10
2022-12-25T23:55:53.306Z,12.10
2022-12-25T23:58:36.069Z,12.00
